CNM weather

Cavern City Air Terminal
Carlsbad, New Mexico, United States

Public forecast

Using degrees Fahrenheit for public forecast. Weather courtesy of forecast.io.

Current aviation weather report (METAR) for Cavern City Air Terminal

Retrieved 2019/10/20 23:53 UTC (1 hour ago):

KCNM 202353Z AUTO 26016G23KT 10SM CLR 25/M04 A2975 RMK AO2 PK WND 25028/2254 SLP029 T02501044 10283 20250 53009

Aviation forecast (TAF) for Cavern City Air Terminal

Retrieved 2019-10-21 00:22 UTC (37 minutes ago):

TAF KCNM 202320Z 2100/2124 25017G27KT P6SM SKC FM210100 28013KT P6SM SKC FM210400 32011KT P6SM SKC FM211800 25010G19KT P6SM SKC